createdAt,value
2019-04-03T00:01:10.981Z,100186.57
2019-04-03T00:03:39.577Z,100180.77
2019-04-03T00:06:08.186Z,100174.98
2019-04-03T00:08:37.103Z,100175.89
2019-04-03T00:11:08.437Z,100178.44
2019-04-03T00:13:36.019Z,100164.92
2019-04-03T00:16:04.659Z,100167.37
2019-04-03T00:18:33.186Z,100156.63
2019-04-03T00:21:01.731Z,100151.72
2019-04-03T00:23:30.374Z,100165.65
2019-04-03T00:25:58.989Z,100159.27
2019-04-03T00:28:27.493Z,100169.42
2019-04-03T00:30:56.091Z,100177.55
2019-04-03T00:33:24.691Z,100177.88
2019-04-03T00:35:53.788Z,100187.23
2019-04-03T00:38:24.351Z,100182.97
2019-04-03T00:40:54.260Z,100172.72
2019-04-03T00:43:24.778Z,100177.53
2019-04-03T00:45:54.669Z,100173.40
2019-04-03T00:48:25.764Z,100167.81
2019-04-03T00:50:56.279Z,100176.12
2019-04-03T00:53:24.444Z,100161.25
2019-04-03T00:55:53.364Z,100160.70
2019-04-03T00:58:36.649Z,100168.48
2019-04-03T01:01:08.118Z,100169.53
2019-04-03T01:03:36.703Z,100166.75
2019-04-03T01:06:05.714Z,100172.86
2019-04-03T01:08:34.451Z,100176.84
2019-04-03T01:11:03.274Z,100179.92
2019-04-03T01:13:31.896Z,100190.78
2019-04-03T01:16:02.516Z,100183.79
2019-04-03T01:18:31.029Z,100189.36
2019-04-03T01:21:00.197Z,100189.75
2019-04-03T01:23:28.674Z,100182.66
2019-04-03T01:25:57.256Z,100181.07
2019-04-03T01:28:25.848Z,100188.31
2019-04-03T01:30:54.533Z,100188.25
2019-04-03T01:33:24.028Z,100190.37
2019-04-03T01:35:52.624Z,100176.31
2019-04-03T01:38:22.661Z,100176.31
2019-04-03T01:40:51.310Z,100183.48
2019-04-03T01:43:19.932Z,100179.97
2019-04-03T01:45:48.522Z,100178.59
2019-04-03T01:48:17.060Z,100179.59
2019-04-03T01:50:45.586Z,100174.87
2019-04-03T01:53:14.050Z,100179.67
2019-04-03T01:55:42.573Z,100179.33
2019-04-03T01:58:11.111Z,100186.58
2019-04-03T02:00:39.913Z,100187.66
2019-04-03T02:03:10.257Z,100184.63
2019-04-03T02:05:38.828Z,100173.81
2019-04-03T02:08:07.507Z,100166.34
2019-04-03T02:10:36.083Z,100161.24
2019-04-03T02:13:04.871Z,100169.20
2019-04-03T02:15:33.425Z,100179.02
2019-04-03T02:18:01.896Z,100170.88
2019-04-03T02:20:30.915Z,100163.84
2019-04-03T02:23:00.505Z,100158.89
2019-04-03T02:25:31.834Z,100161.77
2019-04-03T02:28:00.211Z,100163.70
2019-04-03T02:30:28.726Z,100157.56
2019-04-03T02:32:57.569Z,100170.97
2019-04-03T02:35:26.447Z,100171.36
2019-04-03T02:37:55.104Z,100165.06
2019-04-03T02:40:23.644Z,100164.69
2019-04-03T02:42:52.431Z,100169.92
2019-04-03T02:45:23.977Z,100176.45
2019-04-03T02:47:51.348Z,100177.34
2019-04-03T02:50:26.451Z,100176.22
2019-04-03T02:52:58.247Z,100173.60
2019-04-03T02:55:28.165Z,100163.80
2019-04-03T02:57:56.828Z,100155.50
2019-04-03T03:00:25.539Z,100154.69
2019-04-03T03:02:54.118Z,100156.38
2019-04-03T03:05:26.876Z,100154.33
2019-04-03T03:07:53.254Z,100156.39
2019-04-03T03:10:21.874Z,100154.72
2019-04-03T03:12:50.987Z,100148.50
2019-04-03T03:15:20.692Z,100150.83
2019-04-03T03:17:50.100Z,100155.60
2019-04-03T03:20:24.398Z,100156.78
2019-04-03T03:22:54.521Z,100157.04
2019-04-03T03:25:23.974Z,100152.19
2019-04-03T03:27:53.492Z,100150.02
2019-04-03T03:30:41.104Z,100144.77
2019-04-03T03:33:19.511Z,100141.65
2019-04-03T03:35:31.100Z,100144.43
2019-04-03T03:37:57.243Z,100142.55
2019-04-03T03:40:27.528Z,100144.45
2019-04-03T03:42:57.669Z,100142.63
2019-04-03T03:45:28.349Z,100136.89
2019-04-03T03:47:57.941Z,100139.75
2019-04-03T03:50:26.814Z,100146.36
2019-04-03T03:52:57.441Z,100142.83
2019-04-03T03:55:26.827Z,100139.05
2019-04-03T03:57:57.399Z,100133.72
2019-04-03T04:00:26.641Z,100131.16
2019-04-03T04:02:55.558Z,100142.39
2019-04-03T04:05:24.581Z,100142.37
2019-04-03T04:07:53.668Z,100141.01
2019-04-03T04:10:25.266Z,100134.72
2019-04-03T04:12:53.693Z,100131.53
2019-04-03T04:15:22.582Z,100135.94
2019-04-03T04:17:52.777Z,100131.09
2019-04-03T04:20:22.127Z,100139.19
2019-04-03T04:22:51.712Z,100149.02
2019-04-03T04:25:20.252Z,100140.98
2019-04-03T04:27:49.365Z,100145.98
2019-04-03T04:30:19.735Z,100142.83
2019-04-03T04:32:51.314Z,100133.62
2019-04-03T04:35:21.535Z,100132.69
2019-04-03T04:37:51.818Z,100132.66
2019-04-03T04:40:20.332Z,100123.77
2019-04-03T04:42:49.092Z,100122.07
2019-04-03T04:45:17.834Z,100122.52
2019-04-03T04:47:46.584Z,100125.64
2019-04-03T04:50:25.328Z,100126.98
2019-04-03T04:52:53.129Z,100120.41
2019-04-03T04:55:21.762Z,100126.00
2019-04-03T04:57:50.308Z,100121.13
2019-04-03T05:00:18.794Z,100123.09
2019-04-03T05:02:50.366Z,100112.84
2019-04-03T05:05:17.760Z,100108.08
2019-04-03T05:07:46.346Z,100109.18
2019-04-03T05:10:17.406Z,100109.13
2019-04-03T05:12:45.691Z,100105.75
2019-04-03T05:15:14.546Z,100111.81
2019-04-03T05:17:43.295Z,100116.02
2019-04-03T05:20:12.205Z,100112.67
2019-04-03T05:22:40.780Z,100121.76
2019-04-03T05:25:09.510Z,100119.23
2019-04-03T05:27:38.059Z,100121.86
2019-04-03T05:30:07.069Z,100123.13
2019-04-03T05:32:35.724Z,100126.72
2019-04-03T05:35:05.432Z,100125.34
2019-04-03T05:37:34.062Z,100123.51
2019-04-03T05:40:02.665Z,100122.78
2019-04-03T05:42:31.282Z,100125.01
2019-04-03T05:44:59.906Z,100129.14
2019-04-03T05:47:28.502Z,100127.60
2019-04-03T05:49:57.955Z,100133.65
2019-04-03T05:52:26.461Z,100137.06
2019-04-03T05:54:55.030Z,100133.89
2019-04-03T05:57:23.631Z,100131.58
2019-04-03T05:59:59.829Z,100141.19
2019-04-03T06:02:22.959Z,100143.92
2019-04-03T06:04:51.653Z,100140.94
2019-04-03T06:07:20.289Z,100151.59
2019-04-03T06:09:48.911Z,100153.22
2019-04-03T06:12:18.838Z,100152.53
2019-04-03T06:14:49.584Z,100153.16
2019-04-03T06:17:18.219Z,100156.13
2019-04-03T06:19:46.832Z,100149.77
2019-04-03T06:22:17.121Z,100149.24
2019-04-03T06:24:45.878Z,100149.33
2019-04-03T06:27:14.682Z,100150.48
2019-04-03T06:29:43.250Z,100150.64
2019-04-03T06:32:11.820Z,100155.66
2019-04-03T06:34:42.691Z,100151.12
2019-04-03T06:37:10.732Z,100164.19
2019-04-03T06:39:39.268Z,100157.19
2019-04-03T06:42:07.931Z,100158.13
2019-04-03T06:44:36.541Z,100166.72
2019-04-03T06:47:05.339Z,100159.66
2019-04-03T06:49:33.921Z,100160.55
2019-04-03T06:52:02.543Z,100153.36
2019-04-03T06:54:32.315Z,100160.06
2019-04-03T06:57:01.034Z,100151.72
2019-04-03T06:59:29.676Z,100145.08
2019-04-03T07:01:58.216Z,100149.69
2019-04-03T07:04:26.927Z,100155.37
2019-04-03T07:06:56.620Z,100156.95
2019-04-03T07:09:34.182Z,100160.68
2019-04-03T07:11:57.435Z,100161.41
2019-04-03T07:14:27.190Z,100164.58
2019-04-03T07:16:55.957Z,100164.83
2019-04-03T07:19:24.560Z,100168.89
2019-04-03T07:21:55.185Z,100165.80
2019-04-03T07:24:23.406Z,100161.00
2019-04-03T07:26:52.001Z,100168.48
2019-04-03T07:29:20.756Z,100170.81
2019-04-03T07:31:49.411Z,100166.34
2019-04-03T07:34:18.015Z,100171.12
2019-04-03T07:36:46.797Z,100170.16
2019-04-03T07:39:18.457Z,100173.04
2019-04-03T07:41:45.689Z,100165.78
2019-04-03T07:44:14.334Z,100165.78
2019-04-03T07:46:42.821Z,100162.56
2019-04-03T07:49:13.805Z,100158.17
2019-04-03T07:51:43.297Z,100159.11
2019-04-03T07:54:11.980Z,100153.78
2019-04-03T07:56:40.678Z,100151.26
2019-04-03T07:59:09.254Z,100145.55
2019-04-03T08:01:40.327Z,100143.67
2019-04-03T08:04:08.141Z,100136.72
2019-04-03T08:06:36.759Z,100136.13
2019-04-03T08:09:09.676Z,100124.16
2019-04-03T08:11:38.492Z,100117.92
2019-04-03T08:14:09.087Z,100122.98
2019-04-03T08:16:37.866Z,100128.41
2019-04-03T08:19:08.181Z,100131.76
2019-04-03T08:21:36.743Z,100148.78
2019-04-03T08:24:07.449Z,100150.51
2019-04-03T08:26:35.820Z,100172.45
2019-04-03T08:29:04.462Z,100166.20
2019-04-03T08:31:33.076Z,100166.40
2019-04-03T08:34:14.011Z,100166.20
2019-04-03T08:36:32.024Z,100167.93
2019-04-03T08:39:01.445Z,100156.92
2019-04-03T08:41:30.101Z,100166.28
2019-04-03T08:43:58.580Z,100151.34
2019-04-03T08:46:27.174Z,100147.41
2019-04-03T08:48:55.900Z,100148.66
2019-04-03T08:51:24.615Z,100140.81
2019-04-03T08:53:54.771Z,100141.71
2019-04-03T08:56:23.797Z,100147.52
2019-04-03T08:58:52.599Z,100143.84
2019-04-03T09:01:21.076Z,100150.13
2019-04-03T09:03:49.799Z,100156.68
2019-04-03T09:06:18.461Z,100158.34
2019-04-03T09:08:47.048Z,100160.75
2019-04-03T09:11:15.564Z,100163.33
2019-04-03T09:13:44.189Z,100158.38
2019-04-03T09:16:13.214Z,100161.31
2019-04-03T09:18:42.175Z,100160.02
2019-04-03T09:21:10.998Z,100146.78
2019-04-03T09:23:39.953Z,100147.42
2019-04-03T09:26:08.482Z,100145.13
2019-04-03T09:28:37.109Z,100152.45
2019-04-03T09:31:05.949Z,100151.88
2019-04-03T09:33:34.398Z,100151.41
2019-04-03T09:36:04.316Z,100152.28
2019-04-03T09:38:35.492Z,100151.77
2019-04-03T09:41:03.440Z,100158.94
2019-04-03T09:43:32.776Z,100166.66
2019-04-03T09:46:01.421Z,100154.48
2019-04-03T09:48:29.894Z,100160.30
2019-04-03T09:50:58.696Z,100161.03
2019-04-03T09:53:28.425Z,100167.69
2019-04-03T09:55:56.972Z,100165.61
2019-04-03T09:58:25.516Z,100154.52
2019-04-03T10:00:54.101Z,100150.59
2019-04-03T10:03:23.799Z,100138.98
2019-04-03T10:05:52.650Z,100131.31
2019-04-03T10:08:21.587Z,100138.13
2019-04-03T10:10:50.221Z,100125.08
2019-04-03T10:13:18.741Z,100130.72
2019-04-03T10:15:47.429Z,100115.52
2019-04-03T10:18:16.233Z,100106.41
2019-04-03T10:20:44.868Z,100102.91
2019-04-03T10:23:13.525Z,100100.55
2019-04-03T10:25:42.574Z,100097.17
2019-04-03T10:28:13.769Z,100088.30
2019-04-03T10:30:41.886Z,100086.33
2019-04-03T10:33:10.385Z,100089.06
2019-04-03T10:35:39.845Z,100091.77
2019-04-03T10:38:08.514Z,100096.94
2019-04-03T10:40:37.573Z,100090.80
2019-04-03T10:43:06.727Z,100091.88
2019-04-03T10:45:35.297Z,100103.64
2019-04-03T10:48:04.361Z,100102.58
2019-04-03T10:50:33.253Z,100101.86
2019-04-03T10:53:02.229Z,100100.91
2019-04-03T10:55:30.810Z,100099.40
2019-04-03T10:58:01.655Z,100099.55
2019-04-03T11:00:29.956Z,100087.52
2019-04-03T11:02:58.675Z,100088.49
2019-04-03T11:05:27.296Z,100091.22
2019-04-03T11:07:56.073Z,100091.06
2019-04-03T11:10:25.312Z,100092.48
2019-04-03T11:12:54.576Z,100074.31
2019-04-03T11:15:23.547Z,100074.80
2019-04-03T11:17:52.113Z,100071.88
2019-04-03T11:20:20.925Z,100078.38
2019-04-03T11:22:49.591Z,100076.02
2019-04-03T11:25:18.370Z,100062.50
2019-04-03T11:27:47.354Z,100059.45
2019-04-03T11:30:20.181Z,100055.75
2019-04-03T11:32:47.803Z,100063.59
2019-04-03T11:35:16.638Z,100062.58
2019-04-03T11:37:45.287Z,100070.10
2019-04-03T11:40:17.339Z,100072.98
2019-04-03T11:42:45.646Z,100072.98
2019-04-03T11:45:14.915Z,100064.39
2019-04-03T11:47:45.821Z,100061.77
2019-04-03T11:50:14.574Z,100046.02
2019-04-03T11:52:43.290Z,100028.20
2019-04-03T11:55:12.317Z,100034.22
2019-04-03T11:57:41.016Z,100020.98
2019-04-03T12:00:14.295Z,100011.36
2019-04-03T12:02:44.453Z,100002.95
2019-04-03T12:05:19.764Z,100006.59
2019-04-03T12:07:45.781Z,100005.48
2019-04-03T12:10:15.709Z,100005.45
2019-04-03T12:12:44.192Z,100006.59
2019-04-03T12:15:16.089Z,100012.62
2019-04-03T12:17:44.285Z,100010.47
2019-04-03T12:20:15.568Z,100013.38
2019-04-03T12:22:44.262Z,100027.81
2019-04-03T12:25:14.010Z,100024.06
2019-04-03T12:27:44.996Z,100026.52
2019-04-03T12:30:13.357Z,100018.08
2019-04-03T12:32:47.349Z,100015.14
2019-04-03T12:35:13.237Z,100010.61
2019-04-03T12:37:41.795Z,100009.94
2019-04-03T12:40:11.003Z,100004.94
2019-04-03T12:42:39.579Z,100006.56
2019-04-03T12:45:09.631Z,100006.62
2019-04-03T12:47:38.259Z,100006.25
2019-04-03T12:50:08.577Z,100015.59
2019-04-03T12:52:37.136Z,100022.41
2019-04-03T12:55:07.732Z,100007.80
2019-04-03T12:57:39.232Z,100003.95
2019-04-03T13:00:11.492Z,99995.15
2019-04-03T13:02:40.357Z,99998.33
2019-04-03T13:05:09.896Z,99992.73
2019-04-03T13:07:38.463Z,100000.28
2019-04-03T13:10:10.214Z,99991.34
2019-04-03T13:12:39.371Z,99985.68
2019-04-03T13:15:10.433Z,99978.68
2019-04-03T13:17:39.243Z,99960.12
2019-04-03T13:20:08.591Z,99945.79
2019-04-03T13:22:37.826Z,99938.67
2019-04-03T13:25:08.645Z,99931.64
2019-04-03T13:27:37.701Z,99923.16
2019-04-03T13:30:11.057Z,99932.44
2019-04-03T13:32:38.676Z,99943.62
2019-04-03T13:35:08.085Z,99939.37
2019-04-03T13:37:37.719Z,99939.66
2019-04-03T13:40:09.320Z,99929.28
2019-04-03T13:42:37.959Z,99946.77
2019-04-03T13:45:08.481Z,99938.44
2019-04-03T13:47:39.748Z,99946.34
2019-04-03T13:50:09.811Z,99945.99
2019-04-03T13:52:42.441Z,99949.72
2019-04-03T13:55:09.071Z,99939.98
2019-04-03T13:57:37.768Z,99931.95
2019-04-03T14:00:19.921Z,99929.59
2019-04-03T14:02:44.856Z,99925.27
2019-04-03T14:05:11.975Z,99916.21
2019-04-03T14:07:41.777Z,99911.63
2019-04-03T14:10:11.985Z,99914.27
2019-04-03T14:12:44.347Z,99914.55
2019-04-03T14:15:11.474Z,99914.15
2019-04-03T14:17:40.088Z,99927.21
2019-04-03T14:20:09.929Z,99925.52
2019-04-03T14:22:38.567Z,99930.03
2019-04-03T14:25:19.345Z,99923.71
2019-04-03T14:27:38.787Z,99925.73
2019-04-03T14:30:11.825Z,99937.62
2019-04-03T14:32:41.192Z,99931.17
2019-04-03T14:35:41.241Z,99930.94
2019-04-03T14:37:41.315Z,99933.31
2019-04-03T14:40:12.343Z,99921.50
2019-04-03T14:42:40.276Z,99927.05
2019-04-03T14:45:09.217Z,99921.33
2019-04-03T14:47:38.664Z,99926.53
2019-04-03T14:50:08.177Z,99933.40
2019-04-03T14:52:36.803Z,99924.28
2019-04-03T14:55:18.237Z,99926.38
2019-04-03T14:57:37.574Z,99925.94
2019-04-03T15:00:23.528Z,99927.00
2019-04-03T15:02:40.321Z,99930.92
2019-04-03T15:05:09.578Z,99925.95
2019-04-03T15:07:39.086Z,99921.88
2019-04-03T15:10:08.438Z,99916.21
2019-04-03T15:12:39.834Z,99906.91
2019-04-03T15:15:08.024Z,99904.80
2019-04-03T15:17:37.808Z,99903.70
2019-04-03T15:20:08.494Z,99894.13
2019-04-03T15:22:37.204Z,99897.09
2019-04-03T15:25:06.447Z,99890.03
2019-04-03T15:27:34.980Z,99881.21
2019-04-03T15:30:04.821Z,99878.98
2019-04-03T15:32:33.400Z,99871.38
2019-04-03T15:35:01.969Z,99893.13
2019-04-03T15:37:30.615Z,99907.41
2019-04-03T15:39:59.300Z,99898.55
2019-04-03T15:42:28.054Z,99898.77
2019-04-03T15:44:57.724Z,99915.08
2019-04-03T15:47:35.165Z,99914.39
2019-04-03T15:49:58.778Z,99905.80
2019-04-03T15:52:27.230Z,99912.38
2019-04-03T15:54:55.909Z,99912.83
2019-04-03T15:57:24.436Z,99898.30
2019-04-03T15:59:53.347Z,99901.02
2019-04-03T16:02:22.003Z,99899.77
2019-04-03T16:04:50.623Z,99895.59
2019-04-03T16:07:19.426Z,99903.55
2019-04-03T16:09:51.162Z,99899.36
2019-04-03T16:12:18.279Z,99895.86
2019-04-03T16:14:46.944Z,99905.68
2019-04-03T16:17:15.605Z,99904.23
2019-04-03T16:19:45.082Z,99911.02
2019-04-03T16:22:13.774Z,99901.75
2019-04-03T16:24:43.881Z,99901.75
2019-04-03T16:27:12.849Z,99896.06
2019-04-03T16:29:41.891Z,99894.27
2019-04-03T16:32:10.695Z,99905.11
2019-04-03T16:34:41.786Z,99897.77
2019-04-03T16:37:10.659Z,99897.20
2019-04-03T16:39:39.324Z,99880.00
2019-04-03T16:42:08.476Z,99874.08
2019-04-03T16:44:37.124Z,99869.11
2019-04-03T16:47:05.662Z,99876.02
2019-04-03T16:49:34.156Z,99884.94
2019-04-03T16:52:04.386Z,99875.50
2019-04-03T16:54:33.839Z,99875.50
2019-04-03T16:57:03.687Z,99872.48
2019-04-03T16:59:35.361Z,99852.62
2019-04-03T17:02:02.720Z,99853.41
2019-04-03T17:04:33.037Z,99857.95
2019-04-03T17:07:01.805Z,99858.28
2019-04-03T17:09:32.605Z,99858.52
2019-04-03T17:12:00.932Z,99859.62
2019-04-03T17:14:29.985Z,99858.02
2019-04-03T17:16:58.588Z,99870.66
2019-04-03T17:19:27.156Z,99872.50
2019-04-03T17:21:56.019Z,99882.31
2019-04-03T17:24:24.708Z,99884.70
2019-04-03T17:26:57.365Z,99883.06
2019-04-03T17:29:23.640Z,99894.17
2019-04-03T17:31:52.260Z,99886.63
2019-04-03T17:34:21.263Z,99885.63
2019-04-03T17:36:52.316Z,99887.47
2019-04-03T17:39:20.265Z,99876.06
2019-04-03T17:41:48.889Z,99871.87
2019-04-03T17:44:17.512Z,99868.58
2019-04-03T17:46:48.764Z,99865.76
2019-04-03T17:49:16.458Z,99872.87
2019-04-03T17:51:45.168Z,99874.98
2019-04-03T17:54:13.960Z,99888.91
2019-04-03T17:56:43.063Z,99877.69
2019-04-03T17:59:12.188Z,99872.93
2019-04-03T18:01:40.810Z,99878.80
2019-04-03T18:04:09.304Z,99863.64
2019-04-03T18:06:37.921Z,99864.43
2019-04-03T18:09:09.073Z,99866.81
2019-04-03T18:11:37.691Z,99882.20
2019-04-03T18:14:06.276Z,99886.87
2019-04-03T18:16:35.007Z,99903.27
2019-04-03T18:19:04.838Z,99917.27
2019-04-03T18:21:33.949Z,99917.91
2019-04-03T18:24:02.503Z,99910.25
2019-04-03T18:26:31.272Z,99908.95
2019-04-03T18:28:59.823Z,99903.14
2019-04-03T18:31:28.427Z,99900.81
2019-04-03T18:33:57.038Z,99890.84
2019-04-03T18:36:27.246Z,99893.81
2019-04-03T18:38:55.868Z,99889.97
2019-04-03T18:41:24.502Z,99888.06
2019-04-03T18:43:54.521Z,99887.91
2019-04-03T18:46:31.992Z,99901.08
2019-04-03T18:48:58.833Z,99901.41
2019-04-03T18:51:24.183Z,99912.55
2019-04-03T18:53:52.808Z,99916.53
2019-04-03T18:56:21.395Z,99911.16
2019-04-03T18:58:50.047Z,99911.05
2019-04-03T19:01:18.621Z,99913.08
2019-04-03T19:03:47.269Z,99915.98
2019-04-03T19:06:15.825Z,99918.18
2019-04-03T19:08:44.377Z,99927.23
2019-04-03T19:11:13.248Z,99928.84
2019-04-03T19:13:44.573Z,99933.70
2019-04-03T19:16:12.163Z,99935.66
2019-04-03T19:18:40.802Z,99933.44
2019-04-03T19:21:23.772Z,99942.47
2019-04-03T19:23:49.141Z,99945.75
2019-04-03T19:26:10.127Z,99944.77
2019-04-03T19:28:38.795Z,99945.97
2019-04-03T19:31:08.915Z,99945.00
2019-04-03T19:33:37.785Z,99940.58
2019-04-03T19:36:06.419Z,99952.68
2019-04-03T19:38:35.853Z,99957.41
2019-04-03T19:41:05.222Z,99951.05
2019-04-03T19:43:33.816Z,99948.39
2019-04-03T19:46:02.526Z,99951.99
2019-04-03T19:48:31.045Z,99949.70
2019-04-03T19:51:02.723Z,99938.73
2019-04-03T19:53:29.994Z,99942.12
2019-04-03T19:55:58.635Z,99935.51
2019-04-03T19:58:29.634Z,99936.53
2019-04-03T20:00:57.552Z,99940.73
2019-04-03T20:03:26.179Z,99950.98
2019-04-03T20:05:55.203Z,99954.78
2019-04-03T20:08:23.889Z,99958.70
2019-04-03T20:10:52.494Z,99965.36
2019-04-03T20:13:21.050Z,99960.97
2019-04-03T20:15:49.676Z,99964.98
2019-04-03T20:18:18.276Z,99967.51
2019-04-03T20:20:46.913Z,99964.31
2019-04-03T20:23:15.514Z,99964.52
2019-04-03T20:25:45.997Z,99965.67
2019-04-03T20:28:15.124Z,99954.66
2019-04-03T20:30:44.758Z,99940.77
2019-04-03T20:33:13.384Z,99938.45
2019-04-03T20:35:42.002Z,99931.80
2019-04-03T20:38:10.446Z,99921.22
2019-04-03T20:40:39.948Z,99917.56
2019-04-03T20:43:11.174Z,99912.72
2019-04-03T20:45:39.088Z,99911.19
2019-04-03T20:48:07.663Z,99901.73
2019-04-03T20:50:38.071Z,99904.55
2019-04-03T20:53:06.660Z,99905.95
2019-04-03T20:55:35.155Z,99920.80
2019-04-03T20:58:05.864Z,99911.19
2019-04-03T21:00:34.173Z,99923.40
2019-04-03T21:03:02.815Z,99927.95
2019-04-03T21:05:31.439Z,99937.78
2019-04-03T21:08:00.049Z,99947.03
2019-04-03T21:10:31.142Z,99944.38
2019-04-03T21:12:58.817Z,99946.58
2019-04-03T21:15:27.438Z,99946.14
2019-04-03T21:17:56.028Z,99939.94
2019-04-03T21:20:24.628Z,99920.39
2019-04-03T21:22:53.209Z,99899.25
2019-04-03T21:25:21.871Z,99897.11
2019-04-03T21:27:50.496Z,99887.07
2019-04-03T21:30:19.221Z,99878.36
2019-04-03T21:32:47.809Z,99880.13
2019-04-03T21:35:16.409Z,99879.94
2019-04-03T21:37:45.825Z,99887.32
2019-04-03T21:40:15.272Z,99883.55
2019-04-03T21:42:44.362Z,99869.00
2019-04-03T21:45:14.410Z,99886.42
2019-04-03T21:47:43.302Z,99891.93
2019-04-03T21:50:12.229Z,99893.52
2019-04-03T21:52:40.856Z,99899.58
2019-04-03T21:55:09.758Z,99897.72
2019-04-03T21:57:38.704Z,99894.09
2019-04-03T22:00:13.174Z,99892.28
2019-04-03T22:02:40.387Z,99894.99
2019-04-03T22:05:09.443Z,99907.53
2019-04-03T22:07:37.948Z,99896.52
2019-04-03T22:10:08.749Z,99894.91
2019-04-03T22:12:37.427Z,99891.67
2019-04-03T22:15:07.243Z,99890.04
2019-04-03T22:17:35.783Z,99894.27
2019-04-03T22:20:05.685Z,99885.48
2019-04-03T22:22:34.409Z,99887.63
2019-04-03T22:25:03.087Z,99893.80
2019-04-03T22:27:31.527Z,99905.61
2019-04-03T22:30:00.014Z,99916.12
2019-04-03T22:32:28.555Z,99931.01
2019-04-03T22:34:57.099Z,99940.47
2019-04-03T22:37:25.735Z,99942.35
2019-04-03T22:39:54.482Z,99944.99
2019-04-03T22:42:23.018Z,99947.90
2019-04-03T22:44:51.635Z,99939.78
2019-04-03T22:47:20.107Z,99940.23
2019-04-03T22:49:48.771Z,99922.06
2019-04-03T22:52:17.313Z,99909.19
2019-04-03T22:54:45.788Z,99910.34
2019-04-03T22:57:14.414Z,99914.00
2019-04-03T22:59:42.931Z,99925.13
2019-04-03T23:02:11.487Z,99929.53
2019-04-03T23:04:41.932Z,99937.23
2019-04-03T23:07:10.402Z,99933.17
2019-04-03T23:09:38.922Z,99952.78
2019-04-03T23:12:07.462Z,99953.77
2019-04-03T23:14:38.228Z,99950.83
2019-04-03T23:17:06.314Z,99941.92
2019-04-03T23:19:34.853Z,99938.79
2019-04-03T23:22:03.543Z,99941.85
2019-04-03T23:24:32.408Z,99922.13
2019-04-03T23:27:02.521Z,99920.01
2019-04-03T23:29:31.154Z,99920.84
2019-04-03T23:31:59.715Z,99908.06
2019-04-03T23:34:28.197Z,99892.34
2019-04-03T23:36:59.190Z,99881.75
2019-04-03T23:39:28.009Z,99856.41
2019-04-03T23:41:57.105Z,99883.81
2019-04-03T23:44:25.717Z,99883.98
2019-04-03T23:46:54.446Z,99872.27
2019-04-03T23:49:22.986Z,99852.14
2019-04-03T23:51:51.599Z,99848.11
2019-04-03T23:54:20.168Z,99864.52
2019-04-03T23:56:48.769Z,99864.34
2019-04-03T23:59:18.294Z,99842.58
